.
WxDataArchive / Data Records for 2016-01-17
2016-01-16 January 2016 2016-01-18

Data Records for Sunday, 17 January 2016

Time	Temp	Chill	HIndex	Humid	Dewpt	 Wind 	HiWind	WindDir	Rain 	Barom
-----	----	-----	------	-----	-----	------	------	-------	-----	-----
00:00	25.0	25.0	25.0	76	18.5	1	3	248	0.00	29.905 
00:05	25.0	25.0	25.0	76	18.5	1	3	248	0.00	29.905 
00:10	25.0	25.0	25.0	76	18.5	2	4	248	0.00	29.905 
00:15	25.0	25.0	25.0	76	18.5	2	4	270	0.00	29.893 
00:20	25.0	25.0	25.0	76	18.5	2	6	292	0.00	29.893 
00:25	25.0	25.0	25.0	75	18.2	3	6	270	0.00	29.893 
00:30	25.0	25.0	25.0	74	17.9	3	6	270	0.00	29.891 
00:35	25.0	25.0	25.0	75	18.2	2	4	270	0.00	29.891 
00:40	25.1	25.1	25.1	75	18.3	1	3	270	0.00	29.891 
00:45	25.1	25.1	25.1	75	18.3	1	3	270	0.00	29.892 
00:50	25.1	25.1	25.1	75	18.3	1	3	270	0.00	29.892 
00:55	25.1	25.1	25.1	75	18.3	2	5	270	0.00	29.892 
01:00	25.0	25.0	25.0	75	18.2	2	4	270	0.00	29.903 
01:05	24.8	24.8	24.8	74	17.7	1	3	270	0.00	29.903 
01:10	24.8	24.8	24.8	75	18.0	1	3	270	0.00	29.903 
01:15	24.8	24.8	24.8	74	17.7	1	2	270	0.00	29.893 
01:20	24.8	24.8	24.8	74	17.7	0	2	270	0.00	29.893 
01:25	24.7	24.7	24.7	75	17.9	0	2	270	0.00	29.893 
01:30	24.7	24.7	24.7	75	17.9	0	1	270	0.00	29.894 
01:35	24.7	24.7	24.7	75	17.9	0	2	270	0.00	29.894 
01:40	24.5	24.5	24.5	75	17.7	0	2	270	0.00	29.894 
01:45	24.5	24.5	24.5	74	17.4	1	3	270	0.00	29.893 
01:50	24.4	24.4	24.4	73	17.0	1	4	270	0.00	29.893 
01:55	24.4	24.4	24.4	73	17.0	0	2	270	0.00	29.893 
02:00	24.2	24.2	24.2	73	16.8	1	3	270	0.00	29.903 
02:05	24.2	24.2	24.2	74	17.1	1	3	270	0.00	29.903 
02:10	24.2	24.2	24.2	74	17.1	0	1	270	0.00	29.903 
02:15	24.2	24.2	24.2	74	17.1	1	4	270	0.00	29.906 
02:20	24.2	24.2	24.2	73	16.8	1	6	248	0.00	29.906 
02:25	24.2	24.2	24.2	72	16.5	1	4	248	0.00	29.906 
02:30	24.2	24.2	24.2	72	16.5	1	4	292	0.00	29.916 
02:35	24.2	24.2	24.2	73	16.8	0	2	292	0.00	29.916 
02:40	24.2	24.2	24.2	73	16.8	0	2	292	0.00	29.916 
02:45	24.2	24.2	24.2	73	16.8	0	2	292	0.00	29.906 
02:50	24.2	24.2	24.2	73	16.8	0	4	270	0.00	29.906 
02:55	24.2	24.2	24.2	73	16.8	1	3	270	0.00	29.906 
03:00	24.1	24.1	24.1	73	16.7	0	2	270	0.00	29.907 
03:05	24.1	24.1	24.1	73	16.7	0	2	270	0.00	29.907 
03:10	24.1	24.1	24.1	73	16.7	0	2	270	0.00	29.907 
03:15	24.1	24.1	24.1	73	16.7	1	4	270	0.00	29.904 
03:20	24.1	24.1	24.1	72	16.4	1	3	270	0.00	29.904 
03:25	24.1	24.1	24.1	73	16.7	1	3	270	0.00	29.904 
03:30	24.1	24.1	24.1	73	16.7	0	2	270	0.00	29.903 
03:35	24.1	24.1	24.1	73	16.7	1	3	270	0.00	29.903 
03:40	24.1	24.1	24.1	74	17.0	1	3	270	0.00	29.903 
03:45	24.1	24.1	24.1	74	17.0	1	3	270	0.00	29.900 
03:50	24.1	24.1	24.1	74	17.0	1	3	270	0.00	29.900 
03:55	23.9	23.9	23.9	73	16.5	2	5	270	0.00	29.900 
04:00	23.8	23.8	23.8	72	16.1	2	5	270	0.00	29.891 
04:05	23.6	23.6	23.6	71	15.6	1	4	292	0.00	29.891 
04:10	23.5	23.5	23.5	70	15.2	2	5	292	0.00	29.891 
04:15	23.3	23.3	23.3	72	15.6	2	5	292	0.00	29.888 
04:20	23.2	23.2	23.2	73	15.9	1	4	292	0.00	29.888 
04:25	23.2	23.2	23.2	74	16.2	1	2	292	0.00	29.888 
04:30	23.2	23.2	23.2	75	16.5	1	3	292	0.00	29.884 
04:35	23.0	23.0	23.0	76	16.6	0	2	292	0.00	29.884 
04:40	22.9	22.9	22.9	75	16.2	1	3	292	0.00	29.884 
04:45	22.5	22.5	22.5	74	15.5	0	1	292	0.00	29.878 
04:50	22.2	22.2	22.2	73	14.9	0	2	292	0.00	29.878 
04:55	22.1	22.1	22.1	73	14.8	1	3	292	0.00	29.878 
05:00	21.8	21.8	21.8	73	14.5	1	3	292	0.00	29.882 
05:05	21.4	21.4	21.4	74	14.4	1	2	292	0.00	29.882 
05:10	21.1	21.1	21.1	74	14.1	2	6	292	0.00	29.882 
05:15	21.0	21.0	21.0	74	14.0	2	4	292	0.00	29.886 
05:20	21.0	21.0	21.0	74	14.0	2	4	270	0.00	29.886 
05:25	21.0	21.0	21.0	74	14.0	2	4	270	0.00	29.886 
05:30	21.0	21.0	21.0	74	14.0	1	3	292	0.00	29.885 
05:35	21.0	21.0	21.0	75	14.3	2	4	292	0.00	29.885 
05:40	21.0	21.0	21.0	76	14.6	1	4	270	0.00	29.885 
05:45	20.8	20.8	20.8	76	14.5	1	3	270	0.00	29.883 
05:50	20.8	20.8	20.8	77	14.7	0	2	270	0.00	29.883 
05:55	20.6	20.6	20.6	77	14.6	1	3	270	0.00	29.883 
06:00	20.5	20.5	20.5	77	14.5	2	4	270	0.00	29.884 
06:05	20.3	20.3	20.3	77	14.3	1	5	315	0.00	29.884 
06:10	20.2	20.2	20.2	77	14.2	0	2	315	0.00	29.884 
06:15	20.0	20.0	20.0	77	14.0	1	3	315	0.00	29.885 
06:20	20.0	20.0	20.0	77	14.0	1	2	315	0.00	29.885 
06:25	19.9	19.9	19.9	76	13.6	1	3	315	0.00	29.885 
06:30	19.9	19.9	19.9	75	13.3	1	3	315	0.00	29.885 
06:35	19.9	19.9	19.9	75	13.3	0	2	315	0.00	29.885 
06:40	19.7	19.7	19.7	75	13.1	1	3	292	0.00	29.885 
06:45	19.7	19.7	19.7	74	12.8	1	3	292	0.00	29.895 
06:50	19.7	19.7	19.7	73	12.5	0	2	292	0.00	29.895 
06:55	19.5	19.5	19.5	73	12.3	1	4	270	0.00	29.895 
07:00	19.5	19.5	19.5	71	11.7	2	3	270	0.00	29.902 
07:05	19.4	19.4	19.4	71	11.6	1	2	270	0.00	29.902 
07:10	19.4	19.4	19.4	70	11.2	1	2	270	0.00	29.902 
07:15	19.4	19.4	19.4	70	11.2	1	2	270	0.00	29.910 
07:20	19.4	19.4	19.4	70	11.2	1	3	270	0.00	29.910 
07:25	19.4	19.4	19.4	70	11.2	1	3	270	0.00	29.910 
07:30	19.5	19.5	19.5	70	11.3	0	3	270	0.00	29.913 
07:35	19.4	19.4	19.4	70	11.2	2	5	292	0.00	29.913 
07:40	19.5	19.5	19.5	71	11.7	1	4	0	0.00	29.913 
07:45	19.5	19.5	19.5	71	11.7	1	4	0	0.00	29.920 
07:50	19.4	19.4	19.4	71	11.6	2	4	292	0.00	29.920 
07:55	19.4	19.4	19.4	71	11.6	1	5	292	0.00	29.920 
08:00	19.4	19.4	19.4	71	11.6	1	4	270	0.00	29.917 
08:05	19.2	19.2	19.2	71	11.4	2	5	270	0.00	29.917 
08:10	19.2	19.2	19.2	71	11.4	1	3	270	0.00	29.917 
08:15	19.1	19.1	19.1	72	11.6	2	3	270	0.00	29.918 
08:20	19.1	19.1	19.1	73	11.9	0	2	270	0.00	29.918 
08:25	19.1	19.1	19.1	74	12.2	1	2	270	0.00	29.918 
08:30	18.9	18.9	18.9	74	12.0	2	4	292	0.00	29.928 
08:35	18.6	18.6	18.6	73	11.4	2	5	292	0.00	29.928 
08:40	18.4	18.4	18.4	74	11.5	1	3	270	0.00	29.928 
08:45	18.3	18.3	18.3	74	11.4	2	7	315	0.00	29.930 
08:50	18.0	18.0	18.0	74	11.1	2	4	270	0.00	29.930 
08:55	18.0	18.0	18.0	76	11.7	1	3	270	0.00	29.930 
09:00	17.7	17.7	17.7	77	11.7	2	4	270	0.00	29.931 
09:05	17.5	17.5	17.5	77	11.5	1	3	315	0.00	29.931 
09:10	17.2	17.2	17.2	78	11.5	2	3	292	0.00	29.931 
09:15	17.0	17.0	17.0	79	11.6	2	5	270	0.00	29.942 
09:20	16.9	16.9	16.9	79	11.5	2	5	292	0.00	29.942 
09:25	16.4	16.4	16.4	78	10.8	3	6	292	0.00	29.942 
09:30	16.1	16.1	16.1	78	10.5	3	5	270	0.00	29.948 
09:35	15.7	15.7	15.7	78	10.1	2	6	270	0.00	29.948 
09:40	15.6	15.6	15.6	79	10.3	2	5	315	0.00	29.948 
09:45	15.4	15.4	15.4	79	10.1	2	6	270	0.00	29.951 
09:50	15.2	15.2	15.2	79	9.9	2	5	292	0.00	29.951 
09:55	15.2	15.2	15.2	79	9.9	2	5	292	0.00	29.951 
10:00	15.2	15.2	15.2	80	10.2	2	4	292	0.00	29.966 
10:05	15.2	15.2	15.2	80	10.2	1	4	292	0.00	29.966 
10:10	15.2	15.2	15.2	80	10.2	2	5	292	0.00	29.966 
10:15	15.1	15.1	15.1	80	10.1	2	4	315	0.00	29.967 
10:20	14.9	14.9	14.9	80	9.9	2	5	292	0.00	29.967 
10:25	15.1	15.1	15.1	80	10.1	1	3	270	0.00	29.967 
10:30	14.9	14.9	14.9	80	9.9	2	5	270	0.00	29.974 
10:35	14.8	14.8	14.8	79	9.5	2	5	270	0.00	29.974 
10:40	14.8	14.8	14.8	79	9.5	2	6	270	0.00	29.974 
10:45	14.6	14.6	14.6	77	8.7	3	5	270	0.00	29.979 
10:50	14.6	14.6	14.6	76	8.4	2	4	270	0.00	29.979 
10:55	14.8	14.8	14.8	76	8.6	2	6	270	0.00	29.979 
11:00	14.9	14.9	14.9	76	8.7	1	3	270	0.00	29.983 
11:05	14.9	14.9	14.9	76	8.7	2	4	270	0.00	29.983 
11:10	15.1	15.1	15.1	75	8.6	1	3	270	0.00	29.983 
11:15	14.9	14.9	14.9	75	8.4	2	4	270	0.00	29.983 
11:20	14.8	14.8	14.8	75	8.3	2	5	292	0.00	29.983 
11:25	14.3	14.3	14.3	76	8.1	3	5	270	0.00	29.983 
11:30	14.0	14.0	14.0	78	8.4	2	5	270	0.00	29.986 
11:35	14.0	14.0	14.0	79	8.7	2	4	270	0.00	29.986 
11:40	13.8	13.8	13.8	80	8.8	3	5	270	0.00	29.986 
11:45	13.5	13.5	13.5	78	7.9	2	5	292	0.00	29.988 
11:50	13.3	13.3	13.3	76	7.2	2	4	292	0.00	29.988 
11:55	13.5	13.5	13.5	76	7.4	1	4	270	0.00	29.988 
12:00	14.0	14.0	14.0	76	7.9	2	4	270	0.00	29.982 
12:05	14.4	14.4	14.4	76	8.2	2	6	292	0.00	29.982 
12:10	14.1	14.1	14.1	75	7.7	3	5	292	0.00	29.982 
12:15	13.5	13.5	13.5	74	6.8	3	6	270	0.00	29.983 
12:20	13.5	13.5	13.5	73	6.5	2	6	270	0.00	29.983 
12:25	13.8	13.8	13.8	72	6.5	1	4	315	0.00	29.983 
12:30	13.6	13.6	13.6	69	5.4	3	4	270	0.00	29.982 
12:35	13.3	13.3	13.3	69	5.1	3	6	270	0.00	29.982 
12:40	13.1	13.1	13.1	69	4.9	3	7	270	0.00	29.982 
12:45	13.1	13.1	13.1	67	4.2	3	5	270	0.00	29.974 
12:50	12.9	12.9	12.9	68	4.4	3	5	270	0.00	29.974 
12:55	12.9	12.9	12.9	70	5.0	2	5	270	0.00	29.974 
13:00	12.9	12.9	12.9	70	5.0	2	5	270	0.00	29.973 
13:05	12.8	12.8	12.8	68	4.3	3	5	292	0.00	29.973 
13:10	12.8	12.8	12.8	67	3.9	3	5	292	0.00	29.973 
13:15	13.3	13.3	13.3	67	4.4	2	6	270	0.00	29.972 
13:20	13.6	13.6	13.6	66	4.4	1	4	270	0.00	29.972 
13:25	13.5	13.5	13.5	65	4.0	2	6	270	0.00	29.972 
13:30	13.1	13.1	13.1	66	3.9	3	5	270	0.00	29.971 
13:35	12.6	12.6	12.6	69	4.4	3	7	270	0.00	29.971 
13:40	12.3	12.3	12.3	69	4.1	3	7	270	0.00	29.971 
13:45	11.9	11.9	11.9	69	3.7	3	7	270	0.00	29.972 
13:50	11.7	11.7	11.7	68	3.2	3	7	270	0.00	29.972 
13:55	11.7	11.7	11.7	66	2.6	2	7	315	0.00	29.972 
14:00	11.7	11.7	11.7	67	2.9	2	4	270	0.00	29.972 
14:05	11.4	11.4	11.4	67	2.6	3	5	292	0.00	29.972 
14:10	11.2	11.2	11.2	69	3.0	3	6	292	0.00	29.972 
14:15	11.2	11.2	11.2	69	3.0	2	5	292	0.00	29.974 
14:20	11.2	11.2	11.2	69	3.0	3	7	270	0.00	29.974 
14:25	11.2	11.2	11.2	67	2.4	2	4	270	0.00	29.974 
14:30	11.4	11.4	11.4	66	2.3	2	5	292	0.00	29.978 
14:35	11.4	11.4	11.4	67	2.6	2	6	292	0.00	29.978 
14:40	11.2	11.2	11.2	65	1.8	2	5	292	0.00	29.978 
14:45	11.4	11.4	11.4	64	1.6	2	6	270	0.00	29.982 
14:50	11.7	11.7	11.7	62	1.2	3	5	270	0.00	29.982 
14:55	12.1	12.1	12.1	59	0.6	2	6	270	0.00	29.982 
15:00	11.9	11.9	11.9	57	-0.4	3	5	270	0.00	29.987 
15:05	11.4	11.4	11.4	57	-0.8	3	6	292	0.00	29.987 
15:10	11.2	11.2	11.2	58	-0.7	2	5	270	0.00	29.987 
15:15	11.2	11.2	11.2	58	-0.7	2	6	270	0.00	29.991 
15:20	11.1	11.1	11.1	57	-1.1	2	6	292	0.00	29.991 
15:25	10.9	10.9	10.9	55	-2.1	2	6	270	0.00	29.991 
15:30	11.1	11.1	11.1	56	-1.5	3	6	292	0.00	29.998 
15:35	11.1	11.1	11.1	57	-1.1	2	5	270	0.00	29.998 
15:40	11.1	11.1	11.1	58	-0.8	2	4	270	0.00	29.998 
15:45	11.2	11.2	11.2	61	0.4	1	4	270	0.00	30.004 
15:50	11.2	11.2	11.2	61	0.4	1	4	270	0.00	30.004 
15:55	10.9	10.9	10.9	62	0.5	2	5	270	0.00	30.004 
16:00	10.4	10.4	10.4	65	1.0	2	5	292	0.00	30.006 
16:05	10.0	10.0	10.0	66	0.9	2	4	315	0.00	30.006 
16:10	10.0	10.0	10.0	68	1.6	2	5	292	0.00	30.006 
16:15	10.0	10.0	10.0	68	1.6	1	3	315	0.00	30.013 
16:20	10.2	10.2	10.2	67	1.5	2	6	315	0.00	30.013 
16:25	9.9	9.9	9.9	67	1.2	2	4	270	0.00	30.013 
16:30	9.7	9.7	9.7	65	0.3	1	6	292	0.00	30.022 
16:35	9.5	9.5	9.5	64	-0.2	2	7	292	0.00	30.022 
16:40	9.3	9.3	9.3	64	-0.4	2	4	292	0.00	30.022 
16:45	9.0	9.0	9.0	62	-1.3	3	6	292	0.00	30.031 
16:50	8.8	8.8	8.8	62	-1.5	2	4	270	0.00	30.031 
16:55	8.6	8.6	8.6	62	-1.7	2	5	270	0.00	30.031 
17:00	8.4	8.4	8.4	62	-1.9	2	5	292	0.00	30.040 
17:05	8.6	8.6	8.6	62	-1.7	2	4	292	0.00	30.040 
17:10	8.4	8.4	8.4	62	-1.9	2	4	292	0.00	30.040 
17:15	8.4	8.4	8.4	59	-2.9	2	4	270	0.00	30.049 
17:20	8.3	8.3	8.3	59	-3.0	3	5	270	0.00	30.049 
17:25	7.9	0.2	7.9	62	-2.4	4	10	292	0.00	30.049 
17:30	7.2	7.2	7.2	64	-2.4	3	7	338	0.00	30.058 
17:35	7.0	7.0	7.0	65	-2.2	3	6	270	0.00	30.058 
17:40	6.9	6.9	6.9	66	-2.0	2	4	292	0.00	30.058 
17:45	6.9	6.9	6.9	65	-2.3	2	5	292	0.00	30.067 
17:50	6.9	6.9	6.9	62	-3.3	3	6	270	0.00	30.067 
17:55	6.9	6.9	6.9	58	-4.7	2	6	270	0.00	30.067 
18:00	6.9	6.9	6.9	57	-5.1	2	6	292	0.00	30.073 
18:05	6.7	6.7	6.7	55	-6.0	3	5	270	0.00	30.073 
18:10	6.5	6.5	6.5	54	-6.6	2	9	270	0.00	30.073 
18:15	6.5	6.5	6.5	54	-6.6	2	5	292	0.00	30.080 
18:20	6.3	6.3	6.3	54	-6.7	2	5	270	0.00	30.080 
18:25	6.3	6.3	6.3	54	-6.7	2	4	270	0.00	30.080 
18:30	6.1	6.1	6.1	54	-6.9	2	4	292	0.00	30.087 
18:35	6.1	6.1	6.1	54	-6.9	1	4	338	0.00	30.087 
18:40	6.0	6.0	6.0	55	-6.7	1	4	270	0.00	30.087 
18:45	6.0	6.0	6.0	55	-6.7	2	3	270	0.00	30.089 
18:50	6.0	6.0	6.0	55	-6.7	1	3	270	0.00	30.089 
18:55	6.0	6.0	6.0	55	-6.7	1	4	270	0.00	30.089 
19:00	6.0	6.0	6.0	55	-6.7	2	4	270	0.00	30.091 
19:05	6.0	6.0	6.0	56	-6.3	2	4	270	0.00	30.091 
19:10	5.8	5.8	5.8	56	-6.5	1	3	270	0.00	30.091 
19:15	5.8	5.8	5.8	56	-6.5	2	4	270	0.00	30.095 
19:20	5.8	5.8	5.8	57	-6.1	1	4	248	0.00	30.095 
19:25	5.8	5.8	5.8	57	-6.1	1	4	248	0.00	30.095 
19:30	5.8	5.8	5.8	57	-6.1	1	4	270	0.00	30.099 
19:35	5.8	5.8	5.8	57	-6.1	1	4	270	0.00	30.099 
19:40	5.8	5.8	5.8	57	-6.1	1	3	270	0.00	30.099 
19:45	5.8	5.8	5.8	57	-6.1	1	4	270	0.00	30.104 
19:50	5.8	5.8	5.8	57	-6.1	2	5	292	0.00	30.104 
19:55	5.8	5.8	5.8	56	-6.5	2	4	270	0.00	30.104 
20:00	5.8	5.8	5.8	56	-6.5	2	4	270	0.00	30.107 
20:05	5.8	5.8	5.8	56	-6.5	1	4	270	0.00	30.107 
20:10	5.8	5.8	5.8	56	-6.5	2	5	270	0.00	30.107 
20:15	5.8	5.8	5.8	57	-6.1	1	4	292	0.00	30.110 
20:20	5.8	5.8	5.8	56	-6.5	3	6	270	0.00	30.110 
20:25	5.8	5.8	5.8	57	-6.1	1	3	270	0.00	30.110 
20:30	5.8	5.8	5.8	57	-6.1	2	4	270	0.00	30.114 
20:35	5.8	5.8	5.8	57	-6.1	1	4	270	0.00	30.114 
20:40	5.8	5.8	5.8	58	-5.8	2	4	270	0.00	30.114 
20:45	5.8	5.8	5.8	58	-5.8	0	3	270	0.00	30.118 
20:50	5.8	5.8	5.8	58	-5.8	1	2	270	0.00	30.118 
20:55	5.8	5.8	5.8	58	-5.8	1	3	270	0.00	30.118 
21:00	5.6	5.6	5.6	59	-5.6	1	2	248	0.00	30.124 
21:05	5.6	5.6	5.6	59	-5.6	1	4	248	0.00	30.124 
21:10	5.6	5.6	5.6	59	-5.6	1	3	292	0.00	30.124 
21:15	5.6	5.6	5.6	60	-5.2	1	3	292	0.00	30.129 
21:20	5.6	5.6	5.6	60	-5.2	2	4	270	0.00	30.129 
21:25	5.6	5.6	5.6	60	-5.2	1	2	270	0.00	30.129 
21:30	5.6	5.6	5.6	61	-4.9	2	4	270	0.00	30.130 
21:35	5.6	5.6	5.6	61	-4.9	2	4	270	0.00	30.130 
21:40	5.6	5.6	5.6	60	-5.2	1	3	270	0.00	30.130 
21:45	5.6	5.6	5.6	60	-5.2	2	4	270	0.00	30.131 
21:50	5.6	5.6	5.6	60	-5.2	1	5	270	0.00	30.131 
21:55	5.6	5.6	5.6	59	-5.6	2	4	270	0.00	30.131 
22:00	5.4	5.4	5.4	59	-5.8	1	3	270	0.00	30.136 
22:05	5.4	5.4	5.4	58	-6.1	2	5	270	0.00	30.136 
22:10	5.4	5.4	5.4	58	-6.1	1	4	292	0.00	30.136 
22:15	5.4	5.4	5.4	58	-6.1	1	5	270	0.00	30.140 
22:20	5.2	5.2	5.2	58	-6.3	1	4	270	0.00	30.140 
22:25	5.2	5.2	5.2	58	-6.3	2	5	248	0.00	30.140 
22:30	5.2	5.2	5.2	58	-6.3	2	5	248	0.00	30.144 
22:35	5.2	5.2	5.2	58	-6.3	1	4	248	0.00	30.144 
22:40	5.0	5.0	5.0	58	-6.5	2	4	270	0.00	30.144 
22:45	5.0	5.0	5.0	58	-6.5	2	5	270	0.00	30.147 
22:50	5.0	5.0	5.0	58	-6.5	2	4	270	0.00	30.147 
22:55	5.0	5.0	5.0	58	-6.5	2	5	248	0.00	30.147 
23:00	5.0	5.0	5.0	58	-6.5	2	3	248	0.00	30.149 
23:05	5.0	5.0	5.0	58	-6.5	1	3	270	0.00	30.149 
23:10	4.8	4.8	4.8	58	-6.7	1	4	270	0.00	30.149 
23:15	4.8	4.8	4.8	59	-6.3	1	3	292	0.00	30.160 
23:20	4.7	4.7	4.7	59	-6.4	1	4	292	0.00	30.160 
23:25	4.7	4.7	4.7	59	-6.4	1	4	292	0.00	30.160 
23:30	4.7	4.7	4.7	59	-6.4	1	5	270	0.00	30.162 
23:35	4.5	4.5	4.5	59	-6.6	1	3	248	0.00	30.162 
23:40	4.5	4.5	4.5	59	-6.6	2	5	248	0.00	30.162 
23:45	4.3	4.3	4.3	59	-6.8	1	4	292	0.00	30.163 
23:50	4.3	4.3	4.3	59	-6.8	1	5	270	0.00	30.163 
23:55	4.3	4.3	4.3	60	-6.5	1	3	270	0.00	30.163 

CoCoRaHS
IN-AL-39
A2 Web Hosting
Creative Commons License
GoDaddy
search engine by freefind advanced

loaded 2018-11-19 18:59:19 • last modified 2010-11-18 10:43:29
Privacy PolicyDisclaimer
• wx.awcolley.com is powered by PmWiki v.2002016 •
• all content (unless otherwise noted) © 2018 A W Colley